Time;durP1;ratioP1;P1;durP2;ratioP2;P2;SDS_P1;SDS_P2;PMS_P1;PMS_P2;Temp;Humidity;BMP_temperature;BMP_pressure;BME280_temperature;BME280_humidity;BME280_pressure;Samples;Min_cycle;Max_cycle;Signal;HPM_P1;HPM_P2
2022/07/17 00:01:19;;;;;;;;;;;22.00;81.50;;;;;;5056421;28;20405;-81
2022/07/17 00:03:45;;;;;;;;;;;21.70;85.00;;;;;;5056656;28;19909;-82
2022/07/17 00:06:10;;;;;;;;;;;21.40;88.70;;;;;;5056470;28;19908;-79
2022/07/17 00:08:36;;;;;;;;;;;21.30;89.30;;;;;;5055947;28;20328;-80
2022/07/17 00:11:01;;;;;;;;;;;21.70;86.20;;;;;;5056433;28;20327;-80
2022/07/17 00:13:27;;;;;;;;;;;21.90;84.80;;;;;;5055997;28;19908;-79
2022/07/17 00:15:53;;;;;;;;;;;21.90;84.80;;;;;;5056411;28;20313;-80
2022/07/17 00:18:18;;;;;;;;;;;22.00;84.00;;;;;;5055796;28;19943;-82
2022/07/17 00:20:44;;;;;;;;;;;22.00;83.40;;;;;;5056299;28;19956;-81
2022/07/17 00:23:10;;;;;;;;;;;22.00;83.90;;;;;;5038291;28;19916;-80
2022/07/17 00:25:35;;;;;;;;;;;21.80;85.10;;;;;;5055896;28;19909;-80
2022/07/17 00:28:01;;;;;;;;;;;21.70;86.60;;;;;;5055805;28;19916;-80
2022/07/17 00:30:27;;;;;;;;;;;21.50;88.30;;;;;;5056586;28;19944;-81
2022/07/17 00:32:52;;;;;;;;;;;21.40;88.50;;;;;;5056127;28;20288;-82
2022/07/17 00:35:18;;;;;;;;;;;21.50;87.90;;;;;;5055947;28;19909;-80
2022/07/17 00:37:45;;;;;;;;;;;21.50;88.50;;;;;;5055629;28;19908;-82
2022/07/17 00:40:11;;;;;;;;;;;21.50;88.80;;;;;;5055953;28;19909;-80
2022/07/17 00:42:41;;;;;;;;;;;21.60;87.40;;;;;;5055437;28;20373;-80
2022/07/17 00:45:10;;;;;;;;;;;21.70;87.30;;;;;;5055874;28;19913;-80
2022/07/17 00:47:54;;;;;;;;;;;21.70;87.30;;;;;;5055448;28;19962;-80
2022/07/17 00:50:21;;;;;;;;;;;21.50;89.40;;;;;;5055617;28;20407;-80
2022/07/17 00:52:47;;;;;;;;;;;21.40;90.00;;;;;;5055726;28;19912;-79
2022/07/17 00:55:13;;;;;;;;;;;21.30;90.10;;;;;;5055612;28;19967;-81
2022/07/17 00:57:39;;;;;;;;;;;21.20;90.30;;;;;;5055196;28;20368;-82
2022/07/17 01:00:10;;;;;;;;;;;21.20;90.10;;;;;;5055405;28;19916;-82
2022/07/17 01:02:36;;;;;;;;;;;21.20;90.20;;;;;;5055618;28;19908;-80
2022/07/17 01:05:02;;;;;;;;;;;21.20;90.00;;;;;;5037506;28;20285;-81
2022/07/17 01:07:28;;;;;;;;;;;21.20;90.40;;;;;;5055057;28;19909;-81
2022/07/17 01:09:53;;;;;;;;;;;21.20;90.60;;;;;;5055227;28;20369;-80
2022/07/17 01:12:19;;;;;;;;;;;21.10;90.90;;;;;;5055143;28;19912;-81
2022/07/17 01:14:46;;;;;;;;;;;21.00;91.40;;;;;;5055265;28;19908;-81
2022/07/17 01:17:11;;;;;;;;;;;21.00;91.50;;;;;;5055003;28;19909;-81
2022/07/17 01:19:37;;;;;;;;;;;21.00;91.50;;;;;;5055117;28;20281;-81
2022/07/17 01:22:03;;;;;;;;;;;21.00;91.80;;;;;;5055172;28;19952;-81
2022/07/17 01:24:28;;;;;;;;;;;20.80;92.10;;;;;;5054864;28;19916;-82
2022/07/17 01:26:54;;;;;;;;;;;20.90;92.70;;;;;;5055051;28;19909;-82
2022/07/17 01:29:19;;;;;;;;;;;20.80;93.20;;;;;;5054908;28;19963;-80
2022/07/17 01:31:45;;;;;;;;;;;20.60;94.20;;;;;;5054907;28;19923;-81
2022/07/17 01:34:12;;;;;;;;;;;20.50;94.20;;;;;;5055017;28;20024;-80
2022/07/17 01:36:38;;;;;;;;;;;20.60;94.20;;;;;;5054612;28;19940;-80
2022/07/17 01:39:04;;;;;;;;;;;20.60;94.30;;;;;;5054303;28;19951;-80
2022/07/17 01:41:30;;;;;;;;;;;20.50;95.10;;;;;;5054516;28;19924;-80
2022/07/17 01:43:56;;;;;;;;;;;20.60;94.60;;;;;;5036813;28;19962;-80
2022/07/17 01:46:22;;;;;;;;;;;20.60;94.10;;;;;;5054639;28;20254;-82
2022/07/17 01:48:47;;;;;;;;;;;20.70;94.80;;;;;;5053942;28;20381;-81
2022/07/17 01:51:13;;;;;;;;;;;20.60;94.90;;;;;;5054615;28;20418;-80
2022/07/17 01:53:38;;;;;;;;;;;20.50;95.20;;;;;;5054423;28;19913;-80
2022/07/17 01:56:04;;;;;;;;;;;20.60;95.00;;;;;;5036630;28;19996;-80
2022/07/17 01:58:30;;;;;;;;;;;20.60;94.70;;;;;;5053600;28;19968;-81
2022/07/17 02:00:55;;;;;;;;;;;20.50;95.20;;;;;;5054154;28;19916;-82
2022/07/17 02:03:21;;;;;;;;;;;20.40;96.00;;;;;;5054421;28;20050;-81
2022/07/17 02:05:47;;;;;;;;;;;20.50;95.70;;;;;;5054308;28;19909;-81
2022/07/17 02:08:12;;;;;;;;;;;20.40;96.00;;;;;;5053994;28;19908;-81
2022/07/17 02:10:38;;;;;;;;;;;20.30;96.10;;;;;;5054039;28;20011;-81
2022/07/17 02:13:03;;;;;;;;;;;20.20;96.30;;;;;;5053960;28;19932;-80
2022/07/17 02:15:29;;;;;;;;;;;20.20;96.30;;;;;;5054155;28;19913;-81
2022/07/17 02:17:55;;;;;;;;;;;20.20;96.30;;;;;;5053710;28;19952;-80
2022/07/17 02:20:20;;;;;;;;;;;20.10;96.60;;;;;;5054107;28;20440;-80
2022/07/17 02:22:46;;;;;;;;;;;19.90;97.70;;;;;;5053994;28;19948;-80
2022/07/17 02:25:12;;;;;;;;;;;20.00;97.50;;;;;;5053688;28;19909;-80
2022/07/17 02:27:38;;;;;;;;;;;20.00;97.00;;;;;;5053681;28;20003;-82
2022/07/17 02:30:05;;;;;;;;;;;19.90;97.50;;;;;;5054596;28;19912;-80
2022/07/17 02:32:31;;;;;;;;;;;19.70;99.30;;;;;;5053839;28;19947;-81
2022/07/17 02:34:56;;;;;;;;;;;19.70;99.50;;;;;;5053689;28;19916;-80
2022/07/17 02:37:22;;;;;;;;;;;19.60;99.90;;;;;;5053537;28;20365;-79
2022/07/17 02:39:53;;;;;;;;;;;19.60;99.90;;;;;;5053341;28;19909;-81
2022/07/17 02:42:22;;;;;;;;;;;19.50;99.90;;;;;;5053568;28;19920;-81
2022/07/17 02:44:48;;;;;;;;;;;19.50;99.90;;;;;;5053585;28;19909;-81
2022/07/17 02:47:19;;;;;;;;;;;19.60;99.90;;;;;;5053481;28;19970;-81
2022/07/17 02:49:45;;;;;;;;;;;19.60;99.90;;;;;;5052946;28;19919;-80
2022/07/17 02:52:11;;;;;;;;;;;19.60;99.90;;;;;;5053445;28;19909;-82
2022/07/17 02:54:36;;;;;;;;;;;19.50;99.90;;;;;;5053481;28;19909;-80
2022/07/17 02:57:02;;;;;;;;;;;19.30;99.90;;;;;;5053402;28;20417;-82
2022/07/17 02:59:27;;;;;;;;;;;19.30;99.90;;;;;;5052850;28;19909;-81
2022/07/17 03:01:53;;;;;;;;;;;19.40;99.90;;;;;;5053269;28;19999;-82
2022/07/17 03:04:19;;;;;;;;;;;19.20;99.90;;;;;;5053225;28;19909;-80
2022/07/17 03:06:44;;;;;;;;;;;19.10;99.90;;;;;;5053305;28;20341;-82
2022/07/17 03:09:10;;;;;;;;;;;19.10;99.90;;;;;;5052313;28;19913;-80
2022/07/17 03:11:35;;;;;;;;;;;19.10;99.90;;;;;;5052834;28;19909;-80
2022/07/17 03:14:01;;;;;;;;;;;19.20;99.90;;;;;;5053097;28;20015;-81
2022/07/17 03:16:27;;;;;;;;;;;19.20;99.90;;;;;;5053225;28;20277;-79
2022/07/17 03:18:52;;;;;;;;;;;19.20;99.90;;;;;;5052770;28;20347;-82
2022/07/17 03:21:18;;;;;;;;;;;19.20;99.90;;;;;;5053156;28;19963;-82
2022/07/17 03:23:43;;;;;;;;;;;19.30;99.90;;;;;;5053138;28;19909;-80
2022/07/17 03:26:09;;;;;;;;;;;19.30;99.90;;;;;;5053091;28;20059;-81
2022/07/17 03:28:34;;;;;;;;;;;19.40;99.90;;;;;;5052661;28;19932;-80
2022/07/17 03:31:00;;;;;;;;;;;19.40;99.90;;;;;;5053550;28;19955;-82
2022/07/17 03:33:25;;;;;;;;;;;19.30;99.90;;;;;;5052997;28;19909;-81
2022/07/17 03:35:51;;;;;;;;;;;19.20;99.90;;;;;;5052977;28;20103;-80
2022/07/17 03:38:16;;;;;;;;;;;19.20;99.90;;;;;;5052591;28;20369;-80
2022/07/17 03:40:42;;;;;;;;;;;19.20;99.90;;;;;;5052794;28;19916;-81
2022/07/17 03:43:08;;;;;;;;;;;19.20;99.90;;;;;;5052906;28;20015;-81
2022/07/17 03:45:33;;;;;;;;;;;19.10;99.90;;;;;;5052935;28;20362;-82
2022/07/17 03:47:59;;;;;;;;;;;19.10;99.90;;;;;;5052485;28;20185;-80
2022/07/17 03:50:24;;;;;;;;;;;19.00;99.90;;;;;;5052803;28;19919;-79
2022/07/17 03:52:50;;;;;;;;;;;19.10;99.90;;;;;;5052869;28;19944;-81
2022/07/17 03:55:15;;;;;;;;;;;19.10;99.90;;;;;;5052803;28;19909;-80
2022/07/17 03:57:41;;;;;;;;;;;19.00;99.90;;;;;;5052922;28;19939;-81
2022/07/17 04:00:07;;;;;;;;;;;19.00;99.90;;;;;;5034636;28;19916;-80
2022/07/17 04:02:33;;;;;;;;;;;19.00;99.90;;;;;;5052835;28;19916;-81
2022/07/17 04:04:58;;;;;;;;;;;19.00;99.90;;;;;;5052772;28;19909;-81
2022/07/17 04:07:26;;;;;;;;;;;19.10;99.90;;;;;;5052619;28;19909;-81
2022/07/17 04:10:01;;;;;;;;;;;18.90;99.90;;;;;;5051986;28;19948;-80
2022/07/17 04:12:26;;;;;;;;;;;18.90;99.90;;;;;;5052511;28;20380;-81
2022/07/17 04:14:52;;;;;;;;;;;18.80;99.90;;;;;;5052631;28;19955;-81
2022/07/17 04:17:18;;;;;;;;;;;18.70;99.90;;;;;;5052312;28;20215;-82
2022/07/17 04:19:43;;;;;;;;;;;18.70;99.90;;;;;;5052179;28;19970;-81
2022/07/17 04:22:09;;;;;;;;;;;18.80;99.90;;;;;;5054943;28;20198;-81
2022/07/17 04:24:35;;;;;;;;;;;18.80;99.90;;;;;;5056065;28;19954;-80
2022/07/17 04:27:00;;;;;;;;;;;18.90;99.90;;;;;;5056200;28;20439;-81
2022/07/17 04:29:26;;;;;;;;;;;18.80;99.90;;;;;;5056150;28;20007;-81
2022/07/17 04:31:51;;;;;;;;;;;18.80;99.90;;;;;;5056138;28;20361;-81
2022/07/17 04:34:17;;;;;;;;;;;18.80;99.90;;;;;;5055994;28;19931;-80
2022/07/17 04:36:43;;;;;;;;;;;18.80;99.90;;;;;;5055841;28;19909;-81
2022/07/17 04:39:08;;;;;;;;;;;18.70;99.90;;;;;;5055615;28;19993;-81
2022/07/17 04:41:34;;;;;;;;;;;18.80;99.90;;;;;;5055678;28;20348;-82
2022/07/17 04:43:59;;;;;;;;;;;18.90;99.90;;;;;;5055905;28;19958;-80
2022/07/17 04:46:25;;;;;;;;;;;18.90;99.90;;;;;;5055745;28;19908;-81
2022/07/17 04:48:51;;;;;;;;;;;18.90;99.90;;;;;;5055234;28;19913;-82
2022/07/17 04:51:16;;;;;;;;;;;18.90;99.90;;;;;;5055674;28;20330;-81
2022/07/17 04:53:42;;;;;;;;;;;18.90;99.90;;;;;;5055695;28;20391;-83
2022/07/17 04:56:07;;;;;;;;;;;18.80;99.90;;;;;;5055600;28;19963;-82
2022/07/17 04:58:33;;;;;;;;;;;18.70;99.90;;;;;;5055208;28;19916;-80
2022/07/17 05:00:59;;;;;;;;;;;18.70;99.90;;;;;;5055529;28;19959;-81
2022/07/17 05:03:24;;;;;;;;;;;18.80;99.90;;;;;;5055451;28;19908;-80
2022/07/17 05:05:50;;;;;;;;;;;18.90;99.90;;;;;;5055379;28;20433;-81
2022/07/17 05:08:16;;;;;;;;;;;19.00;99.90;;;;;;5055140;28;19909;-80
2022/07/17 05:10:42;;;;;;;;;;;19.20;99.90;;;;;;5055316;28;20035;-79
2022/07/17 05:13:07;;;;;;;;;;;19.20;99.90;;;;;;5055304;28;20015;-81
2022/07/17 05:15:33;;;;;;;;;;;19.20;99.90;;;;;;5055184;28;19909;-82
2022/07/17 05:17:58;;;;;;;;;;;19.10;99.90;;;;;;5055204;28;19909;-81
2022/07/17 05:20:24;;;;;;;;;;;19.30;99.90;;;;;;5055007;28;19916;-81
2022/07/17 05:22:50;;;;;;;;;;;19.40;99.90;;;;;;5055144;28;20387;-81
2022/07/17 05:25:16;;;;;;;;;;;19.60;99.90;;;;;;5054883;28;19915;-82
2022/07/17 05:27:41;;;;;;;;;;;19.70;99.90;;;;;;5054980;28;20399;-80
2022/07/17 05:30:07;;;;;;;;;;;19.70;99.90;;;;;;5055014;28;19913;-82
2022/07/17 05:32:33;;;;;;;;;;;19.80;99.90;;;;;;5054099;28;20397;-81
2022/07/17 05:34:59;;;;;;;;;;;19.90;99.90;;;;;;5054886;28;20414;-81
2022/07/17 05:37:24;;;;;;;;;;;19.90;99.90;;;;;;5054575;28;19916;-80
2022/07/17 05:39:50;;;;;;;;;;;20.00;99.90;;;;;;5054321;28;19912;-80
2022/07/17 05:42:16;;;;;;;;;;;20.00;99.90;;;;;;5054667;28;19968;-81
2022/07/17 05:44:41;;;;;;;;;;;20.00;99.90;;;;;;5054950;28;20273;-82
2022/07/17 05:47:07;;;;;;;;;;;20.30;99.90;;;;;;5054660;28;19912;-83
2022/07/17 05:49:32;;;;;;;;;;;20.50;99.90;;;;;;5065826;28;19943;-83
2022/07/17 05:51:58;;;;;;;;;;;20.60;99.90;;;;;;5074857;28;19915;-80
2022/07/17 05:54:23;;;;;;;;;;;20.70;99.90;;;;;;5074520;28;19916;-81
2022/07/17 05:56:49;;;;;;;;;;;20.70;99.90;;;;;;5074477;28;19912;-82
2022/07/17 05:59:15;;;;;;;;;;;20.90;99.90;;;;;;5074109;28;19932;-82
2022/07/17 06:01:41;;;;;;;;;;;21.10;99.90;;;;;;5074089;28;19908;-81
2022/07/17 06:04:07;;;;;;;;;;;21.10;99.90;;;;;;5074385;28;19908;-82
2022/07/17 06:06:37;;;;;;;;;;;21.30;99.20;;;;;;5074218;28;19908;-82
2022/07/17 06:09:02;;;;;;;;;;;21.50;98.50;;;;;;5073785;28;19916;-83
2022/07/17 06:11:28;;;;;;;;;;;21.50;97.60;;;;;;5074240;28;20281;-81
2022/07/17 06:13:53;;;;;;;;;;;21.30;98.10;;;;;;5074078;28;19909;-81
2022/07/17 06:16:19;;;;;;;;;;;21.20;99.40;;;;;;5074065;28;20072;-81
2022/07/17 06:18:44;;;;;;;;;;;21.30;98.30;;;;;;5073713;28;19915;-81
2022/07/17 06:21:10;;;;;;;;;;;21.60;98.60;;;;;;5074184;28;20284;-82
2022/07/17 06:23:36;;;;;;;;;;;21.90;97.20;;;;;;5073949;28;19991;-82
2022/07/17 06:26:01;;;;;;;;;;;22.30;96.00;;;;;;5073903;28;19916;-81
2022/07/17 06:28:27;;;;;;;;;;;22.30;95.20;;;;;;5073526;28;19908;-82
2022/07/17 06:30:52;;;;;;;;;;;22.40;95.30;;;;;;5074220;28;19913;-82
2022/07/17 06:33:18;;;;;;;;;;;22.50;95.10;;;;;;5073890;28;19961;-80
2022/07/17 06:35:44;;;;;;;;;;;22.40;94.00;;;;;;5073723;28;20001;-83
2022/07/17 06:38:10;;;;;;;;;;;22.50;92.80;;;;;;5073654;28;19913;-82
2022/07/17 06:40:36;;;;;;;;;;;22.50;92.30;;;;;;5074053;28;20336;-80
2022/07/17 06:43:02;;;;;;;;;;;22.70;89.30;;;;;;5093881;28;19968;-82
2022/07/17 06:45:27;;;;;;;;;;;22.80;89.50;;;;;;5093834;28;19911;-83
2022/07/17 06:47:53;;;;;;;;;;;23.00;86.50;;;;;;5093588;28;19912;-81
2022/07/17 06:50:19;;;;;;;;;;;23.20;86.80;;;;;;5093287;28;19920;-82
2022/07/17 06:52:45;;;;;;;;;;;23.30;84.80;;;;;;5093745;28;19958;-83
2022/07/17 06:55:10;;;;;;;;;;;23.40;85.10;;;;;;5093674;28;19908;-81
2022/07/17 06:57:36;;;;;;;;;;;23.40;82.80;;;;;;5093610;28;20326;-81
2022/07/17 07:00:02;;;;;;;;;;;23.50;82.20;;;;;;5093134;28;19912;-81
2022/07/17 07:02:28;;;;;;;;;;;23.60;82.00;;;;;;5093694;28;20012;-81
2022/07/17 07:04:53;;;;;;;;;;;23.80;80.90;;;;;;5093557;28;20003;-81
2022/07/17 07:07:19;;;;;;;;;;;23.90;79.10;;;;;;5093579;28;20006;-81
2022/07/17 07:09:44;;;;;;;;;;;24.00;77.90;;;;;;5093024;28;20372;-82
2022/07/17 07:12:10;;;;;;;;;;;24.00;77.20;;;;;;5093307;28;19919;-82
2022/07/17 07:14:35;;;;;;;;;;;24.10;77.30;;;;;;5093504;28;20378;-82
2022/07/17 07:17:01;;;;;;;;;;;24.30;76.70;;;;;;5093358;28;19908;-81
2022/07/17 07:19:26;;;;;;;;;;;24.40;76.50;;;;;;5084953;28;20034;-80
2022/07/17 07:21:52;;;;;;;;;;;24.60;75.70;;;;;;5073160;28;20004;-81
2022/07/17 07:24:18;;;;;;;;;;;24.60;74.30;;;;;;5072996;28;20404;-82
2022/07/17 07:26:43;;;;;;;;;;;24.70;74.20;;;;;;5073099;28;20050;-82
2022/07/17 07:29:09;;;;;;;;;;;24.70;73.40;;;;;;5072663;28;19919;-81
2022/07/17 07:31:34;;;;;;;;;;;24.90;73.60;;;;;;5073757;28;19909;-82
2022/07/17 07:34:00;;;;;;;;;;;25.10;72.60;;;;;;5073022;28;20384;-82
2022/07/17 07:36:27;;;;;;;;;;;25.30;71.90;;;;;;5054953;28;20377;-82
2022/07/17 07:38:52;;;;;;;;;;;26.10;70.50;;;;;;5072799;28;19955;-83
2022/07/17 07:41:18;;;;;;;;;;;27.90;66.70;;;;;;5072775;28;20361;-83
2022/07/17 07:43:43;;;;;;;;;;;29.20;61.40;;;;;;5072957;28;20398;-83
2022/07/17 07:46:09;;;;;;;;;;;30.10;59.30;;;;;;5072897;28;19915;-83
2022/07/17 07:48:35;;;;;;;;;;;31.20;57.70;;;;;;5072640;28;19909;-83
2022/07/17 07:51:00;;;;;;;;;;;31.80;55.10;;;;;;5072860;28;19951;-81
2022/07/17 07:53:26;;;;;;;;;;;31.70;54.00;;;;;;5072935;28;19909;-83
2022/07/17 07:55:51;;;;;;;;;;;31.60;53.60;;;;;;5073321;28;20376;-80
2022/07/17 07:58:18;;;;;;;;;;;32.00;53.40;;;;;;5076734;28;19912;-82
2022/07/17 08:00:44;;;;;;;;;;;32.10;52.70;;;;;;5076239;28;19944;-81
2022/07/17 08:03:09;;;;;;;;;;;32.10;52.50;;;;;;5058669;28;19908;-81
2022/07/17 08:05:35;;;;;;;;;;;31.80;52.30;;;;;;5076615;28;19941;-80
2022/07/17 08:08:01;;;;;;;;;;;31.70;53.00;;;;;;5076514;28;20368;-82
2022/07/17 08:10:27;;;;;;;;;;;31.70;53.00;;;;;;5075991;28;19920;-81
2022/07/17 08:12:53;;;;;;;;;;;31.70;52.90;;;;;;5076354;28;19973;-80
2022/07/17 08:15:19;;;;;;;;;;;31.50;53.20;;;;;;5076412;28;20035;-81
2022/07/17 08:17:45;;;;;;;;;;;31.50;52.80;;;;;;5076443;28;19908;-81
2022/07/17 08:20:11;;;;;;;;;;;31.00;52.50;;;;;;5075815;28;20003;-80
2022/07/17 08:22:37;;;;;;;;;;;30.50;53.30;;;;;;5076265;28;19932;-81
2022/07/17 08:25:03;;;;;;;;;;;30.60;53.50;;;;;;5076103;28;20277;-81
2022/07/17 08:27:34;;;;;;;;;;;30.80;54.00;;;;;;5077491;28;19936;-81
2022/07/17 08:30:00;;;;;;;;;;;30.70;53.30;;;;;;5076878;28;19912;-79
2022/07/17 08:32:26;;;;;;;;;;;31.40;53.20;;;;;;5076142;28;19916;-81
2022/07/17 08:34:52;;;;;;;;;;;31.40;52.30;;;;;;5076117;28;19908;-81
2022/07/17 08:37:17;;;;;;;;;;;31.60;52.70;;;;;;5075878;28;19920;-82
2022/07/17 08:39:43;;;;;;;;;;;31.90;53.00;;;;;;5075651;28;20331;-82
2022/07/17 08:42:08;;;;;;;;;;;32.10;51.90;;;;;;5057796;28;19924;-80
2022/07/17 08:44:34;;;;;;;;;;;32.10;51.30;;;;;;5075778;28;19909;-79
2022/07/17 08:47:00;;;;;;;;;;;32.30;51.00;;;;;;5075755;28;19912;-80
2022/07/17 08:49:26;;;;;;;;;;;32.10;51.00;;;;;;5075161;28;19912;-80
2022/07/17 08:51:52;;;;;;;;;;;32.30;50.80;;;;;;5076369;28;19915;-80
2022/07/17 08:54:18;;;;;;;;;;;32.60;49.90;;;;;;5075712;28;19908;-82
2022/07/17 08:56:43;;;;;;;;;;;32.40;49.90;;;;;;5075654;28;19909;-82
2022/07/17 08:59:09;;;;;;;;;;;32.20;49.80;;;;;;5075340;28;19908;-80
2022/07/17 09:01:35;;;;;;;;;;;32.30;49.80;;;;;;5075265;28;19948;-81
2022/07/17 09:04:06;;;;;;;;;;;32.50;50.00;;;;;;5075523;28;19916;-82
2022/07/17 09:06:37;;;;;;;;;;;32.80;49.80;;;;;;5075474;28;19915;-82
2022/07/17 09:09:04;;;;;;;;;;;32.80;49.10;;;;;;5073802;28;19913;-81
2022/07/17 09:11:40;;;;;;;;;;;32.80;48.50;;;;;;5075232;28;19928;-81
2022/07/17 09:14:06;;;;;;;;;;;33.30;48.90;;;;;;5075451;28;19915;-81
2022/07/17 09:16:34;;;;;;;;;;;33.50;48.30;;;;;;5075248;28;20272;-82
2022/07/17 09:19:00;;;;;;;;;;;34.10;48.50;;;;;;5075132;28;19908;-80
2022/07/17 09:21:27;;;;;;;;;;;34.30;47.30;;;;;;5075227;28;20296;-82
2022/07/17 09:23:58;;;;;;;;;;;33.90;46.80;;;;;;5075088;28;19909;-82
2022/07/17 09:26:24;;;;;;;;;;;33.90;47.20;;;;;;5056877;28;20391;-81
2022/07/17 09:28:50;;;;;;;;;;;33.40;47.70;;;;;;5075003;28;19912;-81
2022/07/17 09:31:26;;;;;;;;;;;33.80;48.10;;;;;;5075112;28;19952;-83
2022/07/17 09:33:51;;;;;;;;;;;34.80;46.90;;;;;;5074963;28;20280;-81
2022/07/17 09:36:17;;;;;;;;;;;35.40;46.00;;;;;;5074861;28;19995;-83
2022/07/17 09:38:43;;;;;;;;;;;35.60;44.90;;;;;;5074819;28;19908;-81
2022/07/17 09:41:11;;;;;;;;;;;35.80;44.80;;;;;;5068553;28;20343;-82
2022/07/17 09:43:37;;;;;;;;;;;35.50;43.60;;;;;;5054705;28;20285;-81
2022/07/17 09:46:03;;;;;;;;;;;34.20;44.80;;;;;;5054733;28;19908;-82
2022/07/17 09:48:29;;;;;;;;;;;34.40;45.30;;;;;;5054459;28;19909;-81
2022/07/17 09:50:54;;;;;;;;;;;35.10;44.10;;;;;;5054134;28;20308;-81
2022/07/17 09:53:20;;;;;;;;;;;35.50;42.60;;;;;;5054567;28;19959;-80
2022/07/17 09:55:46;;;;;;;;;;;34.50;42.90;;;;;;5054495;28;19909;-80
2022/07/17 09:58:11;;;;;;;;;;;33.20;43.70;;;;;;5054267;28;19909;-80
2022/07/17 10:00:37;;;;;;;;;;;33.00;44.10;;;;;;5053972;28;19909;-81
2022/07/17 10:03:04;;;;;;;;;;;33.00;44.50;;;;;;5054445;28;19915;-81
2022/07/17 10:05:29;;;;;;;;;;;32.50;45.10;;;;;;5054354;28;19970;-81
2022/07/17 10:07:55;;;;;;;;;;;33.00;45.50;;;;;;5054280;28;19912;-81
2022/07/17 10:10:21;;;;;;;;;;;33.20;45.90;;;;;;5053867;28;19917;-80
2022/07/17 10:12:49;;;;;;;;;;;33.90;45.70;;;;;;5053946;28;19915;-81
2022/07/17 10:15:15;;;;;;;;;;;34.20;44.00;;;;;;5054190;28;19915;-81
2022/07/17 10:17:40;;;;;;;;;;;33.60;44.60;;;;;;5054033;28;20022;-81
2022/07/17 10:20:06;;;;;;;;;;;34.10;45.20;;;;;;5053293;28;19996;-82
2022/07/17 10:22:42;;;;;;;;;;;35.30;43.20;;;;;;5054027;28;19916;-81
2022/07/17 10:25:11;;;;;;;;;;;36.60;42.90;;;;;;5053794;28;19952;-82
2022/07/17 10:27:45;;;;;;;;;;;37.10;41.10;;;;;;5053953;28;19909;-80
2022/07/17 10:30:11;;;;;;;;;;;37.40;40.90;;;;;;5054147;28;19967;-81
2022/07/17 10:32:37;;;;;;;;;;;38.00;40.70;;;;;;5053857;28;19909;-81
2022/07/17 10:35:04;;;;;;;;;;;36.80;41.10;;;;;;5053852;28;19909;-80
2022/07/17 10:37:33;;;;;;;;;;;36.10;42.10;;;;;;5053480;28;20140;-81
2022/07/17 10:40:00;;;;;;;;;;;35.70;42.90;;;;;;5053339;28;19916;-81
2022/07/17 10:42:39;;;;;;;;;;;36.30;42.40;;;;;;5053369;28;19921;-81
2022/07/17 10:45:09;;;;;;;;;;;37.60;41.30;;;;;;5053556;28;19908;-81
2022/07/17 10:47:44;;;;;;;;;;;37.00;41.20;;;;;;5053527;28;20289;-82
2022/07/17 10:50:11;;;;;;;;;;;36.90;41.10;;;;;;5053181;28;19923;-82
2022/07/17 10:52:37;;;;;;;;;;;37.10;40.80;;;;;;5053553;28;19916;-81
2022/07/17 10:55:04;;;;;;;;;;;37.40;41.10;;;;;;5053412;28;19909;-81
2022/07/17 10:57:30;;;;;;;;;;;37.90;40.20;;;;;;5053387;28;19908;-82
2022/07/17 10:59:56;;;;;;;;;;;37.90;40.50;;;;;;5052975;28;19944;-81
2022/07/17 11:02:40;;;;;;;;;;;38.40;39.60;;;;;;5053484;28;19948;-81
2022/07/17 11:05:06;;;;;;;;;;;39.20;39.60;;;;;;5053272;28;20321;-82
2022/07/17 11:07:32;;;;;;;;;;;38.80;39.40;;;;;;5053314;28;19916;-81
2022/07/17 11:09:58;;;;;;;;;;;39.40;39.50;;;;;;5052801;28;19913;-81
2022/07/17 11:12:33;;;;;;;;;;;39.40;38.20;;;;;;5053163;28;19942;-81
2022/07/17 11:14:59;;;;;;;;;;;39.10;37.50;;;;;;5053162;28;19908;-80
2022/07/17 11:17:25;;;;;;;;;;;38.70;38.60;;;;;;5053352;28;19913;-81
2022/07/17 11:19:50;;;;;;;;;;;37.90;38.50;;;;;;5052814;28;19931;-81
2022/07/17 11:22:17;;;;;;;;;;;36.80;39.40;;;;;;5053160;28;19931;-81
2022/07/17 11:24:44;;;;;;;;;;;37.20;39.60;;;;;;5052989;28;19959;-81
2022/07/17 11:27:10;;;;;;;;;;;38.60;38.70;;;;;;5053043;28;19909;-81
2022/07/17 11:29:40;;;;;;;;;;;38.90;38.00;;;;;;5052822;28;20442;-82
2022/07/17 11:32:06;;;;;;;;;;;39.10;37.90;;;;;;5056398;28;19909;-81
2022/07/17 11:34:31;;;;;;;;;;;39.70;38.10;;;;;;5057329;28;19958;-81
2022/07/17 11:37:01;;;;;;;;;;;40.00;38.20;;;;;;5056968;28;19909;-82
2022/07/17 11:39:36;;;;;;;;;;;39.90;37.70;;;;;;5057070;28;20043;-82
2022/07/17 11:42:02;;;;;;;;;;;40.00;38.10;;;;;;5056838;28;19921;-81
2022/07/17 11:44:27;;;;;;;;;;;40.40;37.90;;;;;;5057062;28;19916;-82
2022/07/17 11:46:53;;;;;;;;;;;40.40;37.50;;;;;;5056991;28;19909;-83
2022/07/17 11:49:25;;;;;;;;;;;39.70;38.00;;;;;;5056409;28;19913;-82
2022/07/17 11:51:51;;;;;;;;;;;39.90;37.40;;;;;;5076407;28;19912;-82
2022/07/17 11:54:16;;;;;;;;;;;40.50;37.00;;;;;;5076842;28;20270;-82
2022/07/17 11:56:50;;;;;;;;;;;40.40;37.00;;;;;;5076987;28;19930;-81
2022/07/17 11:59:23;;;;;;;;;;;40.60;36.90;;;;;;5076771;28;19931;-82
2022/07/17 12:01:48;;;;;;;;;;;40.50;37.40;;;;;;5076263;28;19944;-82
2022/07/17 12:04:15;;;;;;;;;;;40.80;37.10;;;;;;5076581;28;19909;-82
2022/07/17 12:06:41;;;;;;;;;;;41.40;36.80;;;;;;5076677;28;19915;-81
2022/07/17 12:09:07;;;;;;;;;;;40.90;36.00;;;;;;5076398;28;19912;-81
2022/07/17 12:11:33;;;;;;;;;;;40.20;36.50;;;;;;5075978;28;19909;-82
2022/07/17 12:14:08;;;;;;;;;;;40.50;36.90;;;;;;5076423;28;19974;-82
2022/07/17 12:16:34;;;;;;;;;;;40.70;36.40;;;;;;5076391;28;20284;-82
2022/07/17 12:19:01;;;;;;;;;;;40.20;36.40;;;;;;5076352;28;19939;-82
2022/07/17 12:21:27;;;;;;;;;;;40.30;37.70;;;;;;5075754;28;19908;-82
2022/07/17 12:24:00;;;;;;;;;;;40.00;37.10;;;;;;5076248;28;19909;-81
2022/07/17 12:26:26;;;;;;;;;;;40.40;36.80;;;;;;5076080;28;20280;-82
2022/07/17 12:28:52;;;;;;;;;;;39.80;36.80;;;;;;5076211;28;19908;-81
2022/07/17 12:31:17;;;;;;;;;;;40.60;37.10;;;;;;5076208;28;20057;-82
2022/07/17 12:33:43;;;;;;;;;;;41.20;36.80;;;;;;5076083;28;20021;-81
2022/07/17 12:36:08;;;;;;;;;;;40.90;36.90;;;;;;5075987;28;19915;-81
2022/07/17 12:38:34;;;;;;;;;;;40.10;37.10;;;;;;5076073;28;19915;-81
2022/07/17 12:41:00;;;;;;;;;;;40.30;37.20;;;;;;5075355;28;20304;-81
2022/07/17 12:43:25;;;;;;;;;;;40.70;36.80;;;;;;5075678;28;19909;-82
2022/07/17 12:45:52;;;;;;;;;;;41.30;36.70;;;;;;5075985;28;19915;-80
2022/07/17 12:48:17;;;;;;;;;;;41.20;36.10;;;;;;5075652;28;19915;-81
2022/07/17 12:50:43;;;;;;;;;;;40.40;36.40;;;;;;5075388;28;19913;-82
2022/07/17 12:53:08;;;;;;;;;;;39.90;36.80;;;;;;5075815;28;19909;-82
2022/07/17 12:55:34;;;;;;;;;;;40.90;36.60;;;;;;5075650;28;19948;-81
2022/07/17 12:58:00;;;;;;;;;;;41.50;36.20;;;;;;5075723;28;19913;-82
2022/07/17 13:00:25;;;;;;;;;;;41.60;36.20;;;;;;5075140;28;19999;-82
2022/07/17 13:02:51;;;;;;;;;;;41.50;35.40;;;;;;5075701;28;19909;-81
2022/07/17 13:05:17;;;;;;;;;;;41.60;36.00;;;;;;5075558;28;19916;-81
2022/07/17 13:07:43;;;;;;;;;;;41.70;35.50;;;;;;5075541;28;19908;-82
2022/07/17 13:10:09;;;;;;;;;;;41.50;35.70;;;;;;5075143;28;19920;-82
2022/07/17 13:12:37;;;;;;;;;;;41.70;35.50;;;;;;5075205;28;20395;-81
2022/07/17 13:15:03;;;;;;;;;;;41.90;35.30;;;;;;5075517;28;19909;-82
2022/07/17 13:17:29;;;;;;;;;;;41.50;34.80;;;;;;5075292;28;20384;-82
2022/07/17 13:19:54;;;;;;;;;;;41.40;35.20;;;;;;5075112;28;19908;-81
2022/07/17 13:22:20;;;;;;;;;;;41.80;35.20;;;;;;5075263;28;19912;-82
2022/07/17 13:24:46;;;;;;;;;;;41.70;35.40;;;;;;5074995;28;19915;-82
2022/07/17 13:27:11;;;;;;;;;;;41.80;35.50;;;;;;5075216;28;19936;-82
2022/07/17 13:29:37;;;;;;;;;;;41.70;35.90;;;;;;5074988;28;19935;-81
2022/07/17 13:32:03;;;;;;;;;;;41.50;35.60;;;;;;5075198;28;19909;-82
2022/07/17 13:34:29;;;;;;;;;;;40.90;35.20;;;;;;5075155;28;19908;-81
2022/07/17 13:36:55;;;;;;;;;;;40.90;35.30;;;;;;5074743;28;19970;-81
2022/07/17 13:39:20;;;;;;;;;;;41.10;35.40;;;;;;5074870;28;19955;-81
2022/07/17 13:41:46;;;;;;;;;;;40.60;35.00;;;;;;5074498;28;19920;-82
2022/07/17 13:44:11;;;;;;;;;;;41.00;35.80;;;;;;5074886;28;19998;-82
2022/07/17 13:46:37;;;;;;;;;;;41.70;35.50;;;;;;5074645;28;19915;-81
2022/07/17 13:49:03;;;;;;;;;;;42.00;35.30;;;;;;5074467;28;19992;-81
2022/07/17 13:51:29;;;;;;;;;;;42.00;35.10;;;;;;5074157;28;20057;-83
2022/07/17 13:53:58;;;;;;;;;;;42.40;35.00;;;;;;5073944;28;19916;-81
2022/07/17 13:56:24;;;;;;;;;;;42.70;34.80;;;;;;5074519;28;19908;-82
2022/07/17 13:58:49;;;;;;;;;;;42.40;34.40;;;;;;5074456;28;19909;-81
2022/07/17 14:01:15;;;;;;;;;;;41.50;34.10;;;;;;5074037;28;19909;-82
2022/07/17 14:03:41;;;;;;;;;;;41.50;34.90;;;;;;5074332;28;19954;-82
2022/07/17 14:06:07;;;;;;;;;;;41.50;35.00;;;;;;5074516;28;19915;-82
2022/07/17 14:08:33;;;;;;;;;;;41.40;34.50;;;;;;5074306;28;20300;-82
2022/07/17 14:10:58;;;;;;;;;;;41.30;34.50;;;;;;5073799;28;19923;-81